<?xml version="1.0" encoding="UTF-8"?>
<gpx version="1.1" creator="2bulu-scraper" xmlns="http://www.topografix.com/GPX/1/1">
  <metadata><name>2026-05-29 16:27:12</name><desc>source: 2bulu.com trackId=84974053; exported 2026-09-01T14:45:33.617Z</desc>
    <bounds minlat="28.882847" minlon="105.458488" maxlat="28.886045" maxlon="105.463829"/>
    <link href="https://www.2bulu.com/track/t-zJEJot4wn13p%252FR2KBg5Tzw%253D%253D.htm"><text>2bulu 源页面</text></link>
  </metadata>
  <wpt lat="28.883964" lon="105.461448"><ele>310</ele><name></name></wpt>
  <wpt lat="28.884024" lon="105.461244"><ele>310</ele><name></name></wpt>
  <wpt lat="28.884177" lon="105.461323"><ele>309</ele><name></name></wpt>
  <wpt lat="28.884248" lon="105.461406"><ele>308</ele><name></name></wpt>
  <wpt lat="28.884288" lon="105.461439"><ele>309</ele><name></name></wpt>
  <wpt lat="28.884657" lon="105.461643"><ele>307</ele><name></name></wpt>
  <wpt lat="28.884793" lon="105.461407"><ele>306</ele><name></name></wpt>
  <wpt lat="28.884869" lon="105.461109"><ele>306</ele><name></name></wpt>
  <wpt lat="28.884873" lon="105.461045"><ele>306</ele><name></name></wpt>
  <wpt lat="28.884806" lon="105.46097"><ele>305</ele><name></name></wpt>
  <wpt lat="28.883589" lon="105.459198"><ele>308</ele><name></name></wpt>
  <wpt lat="28.883261" lon="105.459584"><ele>308</ele><name></name></wpt>
  <wpt lat="28.883134" lon="105.459395"><ele>306</ele><name></name></wpt>
  <wpt lat="28.883709" lon="105.459084"><ele>300</ele><name></name></wpt>
  <wpt lat="28.883668" lon="105.459001"><ele>297</ele><name></name></wpt>
  <wpt lat="28.883768" lon="105.458795"><ele>288</ele><name></name></wpt>
  <wpt lat="28.883923" lon="105.45864"><ele>277</ele><name></name></wpt>
  <wpt lat="28.883945" lon="105.458716"><ele>274</ele><name></name></wpt>
  <wpt lat="28.884093" lon="105.458812"><ele>272</ele><name></name></wpt>
  <wpt lat="28.884093" lon="105.458812"><ele>272</ele><name></name></wpt>
  <wpt lat="28.884081" lon="105.458759"><ele>271</ele><name></name></wpt>
  <wpt lat="28.883993" lon="105.45849"><ele>263</ele><name></name></wpt>
  <wpt lat="28.883993" lon="105.45849"><ele>263</ele><name></name></wpt>
  <wpt lat="28.884268" lon="105.458761"><ele>261</ele><name></name></wpt>
  <wpt lat="28.884541" lon="105.459309"><ele>259</ele><name></name></wpt>
  <wpt lat="28.884541" lon="105.459309"><ele>259</ele><name></name></wpt>
  <wpt lat="28.884541" lon="105.459309"><ele>259</ele><name></name></wpt>
  <wpt lat="28.88604" lon="105.460242"><ele>248</ele><name></name></wpt>
  <wpt lat="28.886022" lon="105.460671"><ele>257</ele><name></name></wpt>
  <wpt lat="28.886045" lon="105.460717"><ele>259</ele><name></name></wpt>
  <wpt lat="28.885959" lon="105.460781"><ele>259</ele><name></name></wpt>
  <wpt lat="28.88591" lon="105.460813"><ele>260</ele><name></name></wpt>
  <wpt lat="28.885468" lon="105.461102"><ele>282</ele><name></name></wpt>
  <wpt lat="28.884932" lon="105.460801"><ele>298</ele><name></name></wpt>
  <wpt lat="28.884892" lon="105.461046"><ele>305</ele><name></name></wpt>
  <trk><name>2026-05-29 16:27:12</name>
      <trkseg>
        <trkpt lat="28.883879" lon="105.462739"><ele>301.73984</ele><time>2026-05-29T00:27:16.000Z</time></trkpt>
        <trkpt lat="28.883868" lon="105.462682"><ele>301.3488</ele><time>2026-05-29T00:27:20.000Z</time></trkpt>
        <trkpt lat="28.883847" lon="105.462633"><ele>303.5133</ele><time>2026-05-29T00:27:24.000Z</time></trkpt>
        <trkpt lat="28.883836" lon="105.462575"><ele>302.86377</ele><time>2026-05-29T00:27:29.000Z</time></trkpt>
        <trkpt lat="28.883826" lon="105.462521"><ele>301.7815</ele><time>2026-05-29T00:27:33.000Z</time></trkpt>
        <trkpt lat="28.88382" lon="105.462461"><ele>301.642</ele><time>2026-05-29T00:27:37.000Z</time></trkpt>
        <trkpt lat="28.883829" lon="105.462395"><ele>302.24857</ele><time>2026-05-29T00:27:41.000Z</time></trkpt>
        <trkpt lat="28.883839" lon="105.462339"><ele>303.01498</ele><time>2026-05-29T00:27:45.000Z</time></trkpt>
        <trkpt lat="28.883833" lon="105.462285"><ele>302.98157</ele><time>2026-05-29T00:27:49.000Z</time></trkpt>
        <trkpt lat="28.883817" lon="105.462226"><ele>303.17316</ele><time>2026-05-29T00:27:54.000Z</time></trkpt>
        <trkpt lat="28.883814" lon="105.462172"><ele>304.0689</ele><time>2026-05-29T00:27:58.000Z</time></trkpt>
        <trkpt lat="28.883797" lon="105.462119"><ele>303.8041</ele><time>2026-05-29T00:28:02.000Z</time></trkpt>
        <trkpt lat="28.883772" lon="105.462075"><ele>303.79486</ele><time>2026-05-29T00:28:06.000Z</time></trkpt>
        <trkpt lat="28.883744" lon="105.462015"><ele>304.34702</ele><time>2026-05-29T00:28:12.000Z</time></trkpt>
        <trkpt lat="28.883707" lon="105.461983"><ele>305.47482</ele><time>2026-05-29T00:28:16.000Z</time></trkpt>
        <trkpt lat="28.883684" lon="105.461938"><ele>305.9632</ele><time>2026-05-29T00:28:19.000Z</time></trkpt>
        <trkpt lat="28.883657" lon="105.46188"><ele>307.3116</ele><time>2026-05-29T00:28:23.000Z</time></trkpt>
        <trkpt lat="28.883658" lon="105.461817"><ele>308.53018</ele><time>2026-05-29T00:28:27.000Z</time></trkpt>
        <trkpt lat="28.883671" lon="105.461754"><ele>310.7663</ele><time>2026-05-29T00:28:31.000Z</time></trkpt>
        <trkpt lat="28.883704" lon="105.461701"><ele>310.41214</ele><time>2026-05-29T00:28:35.000Z</time></trkpt>
        <trkpt lat="28.883737" lon="105.461664"><ele>309.41754</ele><time>2026-05-29T00:28:38.000Z</time></trkpt>
        <trkpt lat="28.883766" lon="105.461624"><ele>309.58493</ele><time>2026-05-29T00:28:41.000Z</time></trkpt>
        <trkpt lat="28.883817" lon="105.461588"><ele>309.18988</ele><time>2026-05-29T00:28:45.000Z</time></trkpt>
        <trkpt lat="28.88386" lon="105.461558"><ele>309.44238</ele><time>2026-05-29T00:28:49.000Z</time></trkpt>
        <trkpt lat="28.883907" lon="105.461543"><ele>308.49664</ele><time>2026-05-29T00:28:53.000Z</time></trkpt>
        <trkpt lat="28.883947" lon="105.461502"><ele>308.52136</ele><time>2026-05-29T00:28:57.000Z</time></trkpt>
        <trkpt lat="28.883964" lon="105.461448"><ele>309.5259</ele><time>2026-05-29T00:29:00.000Z</time></trkpt>
        <trkpt lat="28.883952" lon="105.461389"><ele>310.5577</ele><time>2026-05-29T00:29:06.000Z</time></trkpt>
        <trkpt lat="28.88397" lon="105.461335"><ele>309.87143</ele><time>2026-05-29T00:29:11.000Z</time></trkpt>
        <trkpt lat="28.883985" lon="105.461284"><ele>310.68356</ele><time>2026-05-29T00:29:14.000Z</time></trkpt>
        <trkpt lat="28.884024" lon="105.461244"><ele>310.17773</ele><time>2026-05-29T00:29:19.000Z</time></trkpt>
        <trkpt lat="28.884071" lon="105.461276"><ele>310.1853</ele><time>2026-05-29T00:29:24.000Z</time></trkpt>
        <trkpt lat="28.884132" lon="105.461295"><ele>309.6452</ele><time>2026-05-29T00:29:29.000Z</time></trkpt>
        <trkpt lat="28.884177" lon="105.461323"><ele>308.86182</ele><time>2026-05-29T00:29:33.000Z</time></trkpt>
        <trkpt lat="28.884213" lon="105.461365"><ele>309.17993</ele><time>2026-05-29T00:29:38.000Z</time></trkpt>
        <trkpt lat="28.884248" lon="105.461406"><ele>308.42178</ele><time>2026-05-29T00:29:42.000Z</time></trkpt>
        <trkpt lat="28.884288" lon="105.461439"><ele>308.96585</ele><time>2026-05-29T00:29:53.000Z</time></trkpt>
        <trkpt lat="28.884332" lon="105.461472"><ele>308.33765</ele><time>2026-05-29T00:29:57.000Z</time></trkpt>
        <trkpt lat="28.884378" lon="105.4615"><ele>307.3058</ele><time>2026-05-29T00:30:01.000Z</time></trkpt>
        <trkpt lat="28.884428" lon="105.461527"><ele>307.52643</ele><time>2026-05-29T00:30:05.000Z</time></trkpt>
        <trkpt lat="28.884468" lon="105.461558"><ele>306.99286</ele><time>2026-05-29T00:30:09.000Z</time></trkpt>
        <trkpt lat="28.884515" lon="105.461602"><ele>306.6181</ele><time>2026-05-29T00:30:18.000Z</time></trkpt>
        <trkpt lat="28.884547" lon="105.461651"><ele>306.2595</ele><time>2026-05-29T00:30:22.000Z</time></trkpt>
        <trkpt lat="28.884595" lon="105.461691"><ele>307.03598</ele><time>2026-05-29T00:30:27.000Z</time></trkpt>
        <trkpt lat="28.884643" lon="105.461692"><ele>307.3093</ele><time>2026-05-29T00:30:32.000Z</time></trkpt>
        <trkpt lat="28.884657" lon="105.461643"><ele>306.78406</ele><time>2026-05-29T00:30:35.000Z</time></trkpt>
        <trkpt lat="28.884683" lon="105.461597"><ele>306.0199</ele><time>2026-05-29T00:30:39.000Z</time></trkpt>
        <trkpt lat="28.88471" lon="105.461547"><ele>306.27573</ele><time>2026-05-29T00:30:43.000Z</time></trkpt>
        <trkpt lat="28.884735" lon="105.461498"><ele>306.47025</ele><time>2026-05-29T00:30:47.000Z</time></trkpt>
        <trkpt lat="28.884761" lon="105.461453"><ele>305.92032</ele><time>2026-05-29T00:30:51.000Z</time></trkpt>
        <trkpt lat="28.884793" lon="105.461407"><ele>306.4365</ele><time>2026-05-29T00:30:55.000Z</time></trkpt>
        <trkpt lat="28.884809" lon="105.461351"><ele>307.1326</ele><time>2026-05-29T00:30:59.000Z</time></trkpt>
        <trkpt lat="28.884833" lon="105.461297"><ele>306.40683</ele><time>2026-05-29T00:31:03.000Z</time></trkpt>
        <trkpt lat="28.884847" lon="105.461239"><ele>306.20892</ele><time>2026-05-29T00:31:07.000Z</time></trkpt>
        <trkpt lat="28.884863" lon="105.461178"><ele>306.1046</ele><time>2026-05-29T00:31:11.000Z</time></trkpt>
        <trkpt lat="28.884869" lon="105.461109"><ele>305.79114</ele><time>2026-05-29T00:31:15.000Z</time></trkpt>
        <trkpt lat="28.884873" lon="105.461045"><ele>305.75647</ele><time>2026-05-29T00:31:19.000Z</time></trkpt>
        <trkpt lat="28.884843" lon="105.461006"><ele>305.2099</ele><time>2026-05-29T00:31:36.000Z</time></trkpt>
        <trkpt lat="28.884806" lon="105.46097"><ele>305.07205</ele><time>2026-05-29T00:31:42.000Z</time></trkpt>
        <trkpt lat="28.884766" lon="105.46094"><ele>305.6166</ele><time>2026-05-29T00:32:30.000Z</time></trkpt>
        <trkpt lat="28.884717" lon="105.46093"><ele>306.18304</ele><time>2026-05-29T00:32:38.000Z</time></trkpt>
        <trkpt lat="28.884668" lon="105.460922"><ele>306.4917</ele><time>2026-05-29T00:32:44.000Z</time></trkpt>
        <trkpt lat="28.884621" lon="105.460899"><ele>307.11844</ele><time>2026-05-29T00:32:50.000Z</time></trkpt>
        <trkpt lat="28.884574" lon="105.460886"><ele>307.66632</ele><time>2026-05-29T00:32:53.000Z</time></trkpt>
        <trkpt lat="28.884507" lon="105.460889"><ele>307.42572</ele><time>2026-05-29T00:32:59.000Z</time></trkpt>
        <trkpt lat="28.884448" lon="105.460892"><ele>307.36133</ele><time>2026-05-29T00:33:04.000Z</time></trkpt>
        <trkpt lat="28.884411" lon="105.460857"><ele>307.46524</ele><time>2026-05-29T00:33:08.000Z</time></trkpt>
        <trkpt lat="28.884373" lon="105.460806"><ele>307.69684</ele><time>2026-05-29T00:33:12.000Z</time></trkpt>
        <trkpt lat="28.884342" lon="105.460756"><ele>308.08786</ele><time>2026-05-29T00:33:16.000Z</time></trkpt>
        <trkpt lat="28.884313" lon="105.460701"><ele>308.82736</ele><time>2026-05-29T00:33:20.000Z</time></trkpt>
        <trkpt lat="28.884286" lon="105.460655"><ele>308.7471</ele><time>2026-05-29T00:33:25.000Z</time></trkpt>
        <trkpt lat="28.884257" lon="105.460612"><ele>309.19473</ele><time>2026-05-29T00:33:29.000Z</time></trkpt>
        <trkpt lat="28.884244" lon="105.460555"><ele>308.78363</ele><time>2026-05-29T00:33:35.000Z</time></trkpt>
        <trkpt lat="28.884216" lon="105.460512"><ele>309.82486</ele><time>2026-05-29T00:33:40.000Z</time></trkpt>
        <trkpt lat="28.884185" lon="105.460465"><ele>309.72372</ele><time>2026-05-29T00:33:44.000Z</time></trkpt>
        <trkpt lat="28.884162" lon="105.46041"><ele>309.85666</ele><time>2026-05-29T00:33:49.000Z</time></trkpt>
        <trkpt lat="28.88416" lon="105.460352"><ele>309.15558</ele><time>2026-05-29T00:33:54.000Z</time></trkpt>
        <trkpt lat="28.884143" lon="105.460289"><ele>307.68216</ele><time>2026-05-29T00:34:20.000Z</time></trkpt>
        <trkpt lat="28.884139" lon="105.460237"><ele>308.49902</ele><time>2026-05-29T00:34:22.000Z</time></trkpt>
        <trkpt lat="28.884114" lon="105.460193"><ele>307.44962</ele><time>2026-05-29T00:34:29.000Z</time></trkpt>
        <trkpt lat="28.884091" lon="105.460142"><ele>308.0311</ele><time>2026-05-29T00:34:37.000Z</time></trkpt>
        <trkpt lat="28.884079" lon="105.460089"><ele>307.5553</ele><time>2026-05-29T00:34:42.000Z</time></trkpt>
        <trkpt lat="28.88409" lon="105.460154"><ele>307.59332</ele><time>2026-05-29T00:34:50.000Z</time></trkpt>
        <trkpt lat="28.884072" lon="105.460094"><ele>307.08194</ele><time>2026-05-29T00:35:12.000Z</time></trkpt>
        <trkpt lat="28.884053" lon="105.460034"><ele>306.97446</ele><time>2026-05-29T00:35:18.000Z</time></trkpt>
        <trkpt lat="28.884014" lon="105.459993"><ele>306.22693</ele><time>2026-05-29T00:35:21.000Z</time></trkpt>
        <trkpt lat="28.883967" lon="105.459965"><ele>306.4562</ele><time>2026-05-29T00:35:25.000Z</time></trkpt>
        <trkpt lat="28.883921" lon="105.459966"><ele>307.99918</ele><time>2026-05-29T00:35:30.000Z</time></trkpt>
        <trkpt lat="28.883901" lon="105.459919"><ele>307.91476</ele><time>2026-05-29T00:35:33.000Z</time></trkpt>
        <trkpt lat="28.883865" lon="105.459881"><ele>309.02338</ele><time>2026-05-29T00:35:37.000Z</time></trkpt>
        <trkpt lat="28.883815" lon="105.459873"><ele>308.86832</ele><time>2026-05-29T00:35:41.000Z</time></trkpt>
        <trkpt lat="28.88377" lon="105.459863"><ele>310.2306</ele><time>2026-05-29T00:35:45.000Z</time></trkpt>
        <trkpt lat="28.883734" lon="105.459806"><ele>309.67856</ele><time>2026-05-29T00:35:51.000Z</time></trkpt>
        <trkpt lat="28.883707" lon="105.459762"><ele>309.80023</ele><time>2026-05-29T00:35:54.000Z</time></trkpt>
        <trkpt lat="28.883683" lon="105.459709"><ele>309.72485</ele><time>2026-05-29T00:35:58.000Z</time></trkpt>
        <trkpt lat="28.883682" lon="105.459653"><ele>309.09604</ele><time>2026-05-29T00:36:02.000Z</time></trkpt>
        <trkpt lat="28.883645" lon="105.45961"><ele>308.0246</ele><time>2026-05-29T00:36:06.000Z</time></trkpt>
        <trkpt lat="28.883649" lon="105.459546"><ele>308.0803</ele><time>2026-05-29T00:36:10.000Z</time></trkpt>
        <trkpt lat="28.883629" lon="105.459496"><ele>307.9111</ele><time>2026-05-29T00:36:13.000Z</time></trkpt>
        <trkpt lat="28.88363" lon="105.459433"><ele>307.71143</ele><time>2026-05-29T00:36:17.000Z</time></trkpt>
        <trkpt lat="28.883618" lon="105.45937"><ele>308.35626</ele><time>2026-05-29T00:36:21.000Z</time></trkpt>
        <trkpt lat="28.883595" lon="105.459311"><ele>308.4951</ele><time>2026-05-29T00:36:25.000Z</time></trkpt>
        <trkpt lat="28.883573" lon="105.459254"><ele>308.33377</ele><time>2026-05-29T00:36:29.000Z</time></trkpt>
        <trkpt lat="28.883589" lon="105.459198"><ele>307.70682</ele><time>2026-05-29T00:36:34.000Z</time></trkpt>
        <trkpt lat="28.883597" lon="105.459262"><ele>304.69986</ele><time>2026-05-29T00:37:05.000Z</time></trkpt>
        <trkpt lat="28.88355" lon="105.459234"><ele>306.23526</ele><time>2026-05-29T00:37:17.000Z</time></trkpt>
        <trkpt lat="28.883498" lon="105.459255"><ele>306.2717</ele><time>2026-05-29T00:37:23.000Z</time></trkpt>
        <trkpt lat="28.883442" lon="105.459283"><ele>307.14072</ele><time>2026-05-29T00:37:28.000Z</time></trkpt>
        <trkpt lat="28.883402" lon="105.459312"><ele>307.31573</ele><time>2026-05-29T00:37:32.000Z</time></trkpt>
        <trkpt lat="28.883351" lon="105.459309"><ele>307.67236</ele><time>2026-05-29T00:37:37.000Z</time></trkpt>
        <trkpt lat="28.883301" lon="105.459321"><ele>308.03653</ele><time>2026-05-29T00:37:43.000Z</time></trkpt>
        <trkpt lat="28.8833" lon="105.459376"><ele>308.01373</ele><time>2026-05-29T00:37:47.000Z</time></trkpt>
        <trkpt lat="28.883308" lon="105.459428"><ele>307.61847</ele><time>2026-05-29T00:37:50.000Z</time></trkpt>
        <trkpt lat="28.883317" lon="105.459487"><ele>307.10565</ele><time>2026-05-29T00:37:55.000Z</time></trkpt>
        <trkpt lat="28.883309" lon="105.459544"><ele>307.9394</ele><time>2026-05-29T00:38:00.000Z</time></trkpt>
        <trkpt lat="28.883261" lon="105.459584"><ele>307.52026</ele><time>2026-05-29T00:38:05.000Z</time></trkpt>
        <trkpt lat="28.883224" lon="105.459536"><ele>305.83246</ele><time>2026-05-29T00:38:22.000Z</time></trkpt>
        <trkpt lat="28.88318" lon="105.459508"><ele>304.76163</ele><time>2026-05-29T00:38:28.000Z</time></trkpt>
        <trkpt lat="28.883133" lon="105.459496"><ele>305.19955</ele><time>2026-05-29T00:38:32.000Z</time></trkpt>
        <trkpt lat="28.883161" lon="105.459451"><ele>304.14203</ele><time>2026-05-29T00:38:37.000Z</time></trkpt>
        <trkpt lat="28.883134" lon="105.459395"><ele>305.79376</ele><time>2026-05-29T00:38:41.000Z</time></trkpt>
        <trkpt lat="28.883092" lon="105.459372"><ele>305.94525</ele><time>2026-05-29T00:38:44.000Z</time></trkpt>
        <trkpt lat="28.883062" lon="105.459324"><ele>305.73602</ele><time>2026-05-29T00:38:48.000Z</time></trkpt>
        <trkpt lat="28.883023" lon="105.459297"><ele>306.423</ele><time>2026-05-29T00:38:51.000Z</time></trkpt>
        <trkpt lat="28.883046" lon="105.459235"><ele>303.1322</ele><time>2026-05-29T00:38:54.000Z</time></trkpt>
        <trkpt lat="28.883011" lon="105.459199"><ele>302.0866</ele><time>2026-05-29T00:38:59.000Z</time></trkpt>
        <trkpt lat="28.882971" lon="105.459169"><ele>301.81915</ele><time>2026-05-29T00:39:04.000Z</time></trkpt>
        <trkpt lat="28.88293" lon="105.459127"><ele>302.8545</ele><time>2026-05-29T00:39:13.000Z</time></trkpt>
        <trkpt lat="28.882879" lon="105.459105"><ele>302.71777</ele><time>2026-05-29T00:39:17.000Z</time></trkpt>
        <trkpt lat="28.882847" lon="105.459058"><ele>303.39737</ele><time>2026-05-29T00:39:21.000Z</time></trkpt>
        <trkpt lat="28.882882" lon="105.459008"><ele>303.82745</ele><time>2026-05-29T00:39:25.000Z</time></trkpt>
        <trkpt lat="28.882902" lon="105.45896"><ele>301.70303</ele><time>2026-05-29T00:39:29.000Z</time></trkpt>
        <trkpt lat="28.882943" lon="105.458939"><ele>298.38364</ele><time>2026-05-29T00:39:35.000Z</time></trkpt>
        <trkpt lat="28.882988" lon="105.458966"><ele>299.7008</ele><time>2026-05-29T00:39:39.000Z</time></trkpt>
        <trkpt lat="28.883041" lon="105.458947"><ele>298.51898</ele><time>2026-05-29T00:39:43.000Z</time></trkpt>
        <trkpt lat="28.883086" lon="105.458957"><ele>297.66995</ele><time>2026-05-29T00:39:47.000Z</time></trkpt>
        <trkpt lat="28.883141" lon="105.458968"><ele>299.2122</ele><time>2026-05-29T00:39:53.000Z</time></trkpt>
        <trkpt lat="28.883187" lon="105.458964"><ele>298.1803</ele><time>2026-05-29T00:39:56.000Z</time></trkpt>
        <trkpt lat="28.883237" lon="105.458954"><ele>298.7409</ele><time>2026-05-29T00:40:00.000Z</time></trkpt>
        <trkpt lat="28.883289" lon="105.45896"><ele>297.6044</ele><time>2026-05-29T00:40:07.000Z</time></trkpt>
        <trkpt lat="28.883336" lon="105.45895"><ele>297.6863</ele><time>2026-05-29T00:40:12.000Z</time></trkpt>
        <trkpt lat="28.883384" lon="105.45898"><ele>298.69748</ele><time>2026-05-29T00:40:16.000Z</time></trkpt>
        <trkpt lat="28.88343" lon="105.458995"><ele>299.36758</ele><time>2026-05-29T00:40:25.000Z</time></trkpt>
        <trkpt lat="28.883477" lon="105.458985"><ele>298.73877</ele><time>2026-05-29T00:40:28.000Z</time></trkpt>
        <trkpt lat="28.88351" lon="105.458942"><ele>298.35468</ele><time>2026-05-29T00:40:36.000Z</time></trkpt>
        <trkpt lat="28.883558" lon="105.458945"><ele>297.7242</ele><time>2026-05-29T00:40:42.000Z</time></trkpt>
        <trkpt lat="28.883584" lon="105.458997"><ele>299.30817</ele><time>2026-05-29T00:40:51.000Z</time></trkpt>
        <trkpt lat="28.883616" lon="105.459034"><ele>299.7469</ele><time>2026-05-29T00:40:55.000Z</time></trkpt>
        <trkpt lat="28.883659" lon="105.459059"><ele>300.0196</ele><time>2026-05-29T00:40:59.000Z</time></trkpt>
        <trkpt lat="28.883709" lon="105.459084"><ele>299.7319</ele><time>2026-05-29T00:41:04.000Z</time></trkpt>
        <trkpt lat="28.883716" lon="105.459026"><ele>298.55176</ele><time>2026-05-29T00:41:13.000Z</time></trkpt>
        <trkpt lat="28.883668" lon="105.459001"><ele>296.65765</ele><time>2026-05-29T00:41:18.000Z</time></trkpt>
        <trkpt lat="28.883637" lon="105.458957"><ele>297.52322</ele><time>2026-05-29T00:41:22.000Z</time></trkpt>
        <trkpt lat="28.88363" lon="105.458894"><ele>295.8585</ele><time>2026-05-29T00:41:28.000Z</time></trkpt>
        <trkpt lat="28.883641" lon="105.458843"><ele>292.88388</ele><time>2026-05-29T00:41:36.000Z</time></trkpt>
        <trkpt lat="28.883669" lon="105.458798"><ele>291.46967</ele><time>2026-05-29T00:41:43.000Z</time></trkpt>
        <trkpt lat="28.88372" lon="105.458794"><ele>290.70044</ele><time>2026-05-29T00:41:48.000Z</time></trkpt>
        <trkpt lat="28.883768" lon="105.458795"><ele>287.9424</ele><time>2026-05-29T00:42:00.000Z</time></trkpt>
        <trkpt lat="28.883814" lon="105.458795"><ele>286.67117</ele><time>2026-05-29T00:42:10.000Z</time></trkpt>
        <trkpt lat="28.883848" lon="105.458751"><ele>282.50043</ele><time>2026-05-29T00:42:22.000Z</time></trkpt>
        <trkpt lat="28.883895" lon="105.458797"><ele>281.6609</ele><time>2026-05-29T00:42:30.000Z</time></trkpt>
        <trkpt lat="28.883923" lon="105.45875"><ele>280.6643</ele><time>2026-05-29T00:42:36.000Z</time></trkpt>
        <trkpt lat="28.883925" lon="105.458694"><ele>278.3418</ele><time>2026-05-29T00:42:42.000Z</time></trkpt>
        <trkpt lat="28.883923" lon="105.45864"><ele>276.98398</ele><time>2026-05-29T00:42:50.000Z</time></trkpt>
        <trkpt lat="28.883965" lon="105.458668"><ele>273.47626</ele><time>2026-05-29T00:43:41.000Z</time></trkpt>
        <trkpt lat="28.883945" lon="105.458716"><ele>274.16812</ele><time>2026-05-29T00:43:48.000Z</time></trkpt>
        <trkpt lat="28.883986" lon="105.458739"><ele>274.32544</ele><time>2026-05-29T00:43:53.000Z</time></trkpt>
        <trkpt lat="28.88401" lon="105.458784"><ele>273.5467</ele><time>2026-05-29T00:44:00.000Z</time></trkpt>
        <trkpt lat="28.884041" lon="105.458824"><ele>272.8492</ele><time>2026-05-29T00:44:26.000Z</time></trkpt>
        <trkpt lat="28.884073" lon="105.458872"><ele>273.04346</ele><time>2026-05-29T00:44:42.000Z</time></trkpt>
        <trkpt lat="28.8841" lon="105.458916"><ele>271.77396</ele><time>2026-05-29T00:45:02.000Z</time></trkpt>
        <trkpt lat="28.884112" lon="105.458863"><ele>271.3401</ele><time>2026-05-29T00:45:07.000Z</time></trkpt>
        <trkpt lat="28.884093" lon="105.458812"><ele>271.89038</ele><time>2026-05-29T00:45:13.000Z</time></trkpt>
        <trkpt lat="28.884081" lon="105.458759"><ele>271.14703</ele><time>2026-05-29T00:45:49.000Z</time></trkpt>
        <trkpt lat="28.884099" lon="105.458711"><ele>269.9123</ele><time>2026-05-29T00:45:55.000Z</time></trkpt>
        <trkpt lat="28.884102" lon="105.458647"><ele>268.7226</ele><time>2026-05-29T00:46:04.000Z</time></trkpt>
        <trkpt lat="28.884123" lon="105.458602"><ele>268.12842</ele><time>2026-05-29T00:46:16.000Z</time></trkpt>
        <trkpt lat="28.884112" lon="105.458551"><ele>265.83618</ele><time>2026-05-29T00:46:18.000Z</time></trkpt>
        <trkpt lat="28.884055" lon="105.458529"><ele>263.3145</ele><time>2026-05-29T00:46:28.000Z</time></trkpt>
        <trkpt lat="28.883997" lon="105.458509"><ele>263.77142</ele><time>2026-05-29T00:46:34.000Z</time></trkpt>
        <trkpt lat="28.883944" lon="105.458488"><ele>264.69296</ele><time>2026-05-29T00:46:39.000Z</time></trkpt>
        <trkpt lat="28.883993" lon="105.45849"><ele>263.14493</ele><time>2026-05-29T00:46:56.000Z</time></trkpt>
        <trkpt lat="28.884031" lon="105.458525"><ele>262.95334</ele><time>2026-05-29T00:47:09.000Z</time></trkpt>
        <trkpt lat="28.884079" lon="105.458559"><ele>261.5934</ele><time>2026-05-29T00:47:16.000Z</time></trkpt>
        <trkpt lat="28.884117" lon="105.458601"><ele>260.9723</ele><time>2026-05-29T00:47:21.000Z</time></trkpt>
        <trkpt lat="28.884155" lon="105.458634"><ele>260.52985</ele><time>2026-05-29T00:47:26.000Z</time></trkpt>
        <trkpt lat="28.88419" lon="105.458684"><ele>261.35236</ele><time>2026-05-29T00:47:30.000Z</time></trkpt>
        <trkpt lat="28.884229" lon="105.458716"><ele>258.51437</ele><time>2026-05-29T00:47:34.000Z</time></trkpt>
        <trkpt lat="28.884268" lon="105.458761"><ele>260.56775</ele><time>2026-05-29T00:47:38.000Z</time></trkpt>
        <trkpt lat="28.884304" lon="105.458803"><ele>261.23428</ele><time>2026-05-29T00:47:45.000Z</time></trkpt>
        <trkpt lat="28.884312" lon="105.458868"><ele>260.5373</ele><time>2026-05-29T00:47:50.000Z</time></trkpt>
        <trkpt lat="28.884324" lon="105.458927"><ele>260.75006</ele><time>2026-05-29T00:47:55.000Z</time></trkpt>
        <trkpt lat="28.884341" lon="105.45898"><ele>262.1584</ele><time>2026-05-29T00:48:01.000Z</time></trkpt>
        <trkpt lat="28.884365" lon="105.459026"><ele>261.52676</ele><time>2026-05-29T00:48:05.000Z</time></trkpt>
        <trkpt lat="28.884389" lon="105.459073"><ele>261.01297</ele><time>2026-05-29T00:48:09.000Z</time></trkpt>
        <trkpt lat="28.884419" lon="105.459119"><ele>260.31625</ele><time>2026-05-29T00:48:13.000Z</time></trkpt>
        <trkpt lat="28.884462" lon="105.459172"><ele>259.53647</ele><time>2026-05-29T00:48:18.000Z</time></trkpt>
        <trkpt lat="28.884484" lon="105.459221"><ele>259.11572</ele><time>2026-05-29T00:48:22.000Z</time></trkpt>
        <trkpt lat="28.884514" lon="105.45926"><ele>258.89758</ele><time>2026-05-29T00:48:26.000Z</time></trkpt>
        <trkpt lat="28.884541" lon="105.459309"><ele>258.80228</ele><time>2026-05-29T00:48:35.000Z</time></trkpt>
        <trkpt lat="28.884592" lon="105.459318"><ele>256.5552</ele><time>2026-05-29T00:49:09.000Z</time></trkpt>
        <trkpt lat="28.884567" lon="105.459378"><ele>255.58163</ele><time>2026-05-29T00:49:19.000Z</time></trkpt>
        <trkpt lat="28.884592" lon="105.459421"><ele>257.55612</ele><time>2026-05-29T00:49:30.000Z</time></trkpt>
        <trkpt lat="28.884637" lon="105.459451"><ele>255.63354</ele><time>2026-05-29T00:49:50.000Z</time></trkpt>
        <trkpt lat="28.884674" lon="105.459419"><ele>253.11046</ele><time>2026-05-29T00:50:01.000Z</time></trkpt>
        <trkpt lat="28.884705" lon="105.459373"><ele>252.98431</ele><time>2026-05-29T00:50:10.000Z</time></trkpt>
        <trkpt lat="28.884749" lon="105.459397"><ele>248.91582</ele><time>2026-05-29T00:50:21.000Z</time></trkpt>
        <trkpt lat="28.884761" lon="105.459451"><ele>249.59113</ele><time>2026-05-29T00:50:32.000Z</time></trkpt>
        <trkpt lat="28.884807" lon="105.459475"><ele>249.96107</ele><time>2026-05-29T00:50:40.000Z</time></trkpt>
        <trkpt lat="28.884834" lon="105.459517"><ele>248.92207</ele><time>2026-05-29T00:50:45.000Z</time></trkpt>
        <trkpt lat="28.884864" lon="105.459557"><ele>249.01682</ele><time>2026-05-29T00:50:50.000Z</time></trkpt>
        <trkpt lat="28.884882" lon="105.459609"><ele>249.31822</ele><time>2026-05-29T00:50:56.000Z</time></trkpt>
        <trkpt lat="28.884905" lon="105.459661"><ele>248.61098</ele><time>2026-05-29T00:51:02.000Z</time></trkpt>
        <trkpt lat="28.884927" lon="105.459707"><ele>249.3288</ele><time>2026-05-29T00:51:10.000Z</time></trkpt>
        <trkpt lat="28.884972" lon="105.459737"><ele>249.8004</ele><time>2026-05-29T00:51:21.000Z</time></trkpt>
        <trkpt lat="28.884995" lon="105.459782"><ele>249.85875</ele><time>2026-05-29T00:51:46.000Z</time></trkpt>
        <trkpt lat="28.885038" lon="105.459797"><ele>250.0802</ele><time>2026-05-29T00:51:56.000Z</time></trkpt>
        <trkpt lat="28.885094" lon="105.459809"><ele>249.01837</ele><time>2026-05-29T00:52:01.000Z</time></trkpt>
        <trkpt lat="28.885147" lon="105.459832"><ele>248.13713</ele><time>2026-05-29T00:52:06.000Z</time></trkpt>
        <trkpt lat="28.885188" lon="105.459855"><ele>248.25578</ele><time>2026-05-29T00:52:09.000Z</time></trkpt>
        <trkpt lat="28.885218" lon="105.459894"><ele>247.81523</ele><time>2026-05-29T00:52:12.000Z</time></trkpt>
        <trkpt lat="28.885252" lon="105.45993"><ele>247.85976</ele><time>2026-05-29T00:52:17.000Z</time></trkpt>
        <trkpt lat="28.885278" lon="105.45998"><ele>248.19022</ele><time>2026-05-29T00:52:21.000Z</time></trkpt>
        <trkpt lat="28.885317" lon="105.460025"><ele>248.92154</ele><time>2026-05-29T00:52:27.000Z</time></trkpt>
        <trkpt lat="28.885357" lon="105.460057"><ele>247.45355</ele><time>2026-05-29T00:52:31.000Z</time></trkpt>
        <trkpt lat="28.885405" lon="105.460085"><ele>247.21162</ele><time>2026-05-29T00:52:40.000Z</time></trkpt>
        <trkpt lat="28.885445" lon="105.460115"><ele>246.96089</ele><time>2026-05-29T00:52:45.000Z</time></trkpt>
        <trkpt lat="28.885491" lon="105.460141"><ele>246.65091</ele><time>2026-05-29T00:52:53.000Z</time></trkpt>
        <trkpt lat="28.885536" lon="105.460158"><ele>246.30785</ele><time>2026-05-29T00:52:57.000Z</time></trkpt>
        <trkpt lat="28.885554" lon="105.460208"><ele>248.74625</ele><time>2026-05-29T00:53:04.000Z</time></trkpt>
        <trkpt lat="28.885573" lon="105.460263"><ele>250.0495</ele><time>2026-05-29T00:53:35.000Z</time></trkpt>
        <trkpt lat="28.885603" lon="105.460313"><ele>250.25864</ele><time>2026-05-29T00:53:39.000Z</time></trkpt>
        <trkpt lat="28.885645" lon="105.460342"><ele>251.59395</ele><time>2026-05-29T00:53:45.000Z</time></trkpt>
        <trkpt lat="28.885663" lon="105.460393"><ele>251.34297</ele><time>2026-05-29T00:53:52.000Z</time></trkpt>
        <trkpt lat="28.8857" lon="105.460424"><ele>253.60799</ele><time>2026-05-29T00:54:08.000Z</time></trkpt>
        <trkpt lat="28.885734" lon="105.460468"><ele>252.35616</ele><time>2026-05-29T00:54:20.000Z</time></trkpt>
        <trkpt lat="28.885753" lon="105.460522"><ele>253.5015</ele><time>2026-05-29T00:54:37.000Z</time></trkpt>
        <trkpt lat="28.885767" lon="105.460574"><ele>255.86168</ele><time>2026-05-29T00:55:11.000Z</time></trkpt>
        <trkpt lat="28.88581" lon="105.460586"><ele>255.81094</ele><time>2026-05-29T00:55:21.000Z</time></trkpt>
        <trkpt lat="28.885862" lon="105.460594"><ele>255.87082</ele><time>2026-05-29T00:55:27.000Z</time></trkpt>
        <trkpt lat="28.885909" lon="105.460599"><ele>255.96324</ele><time>2026-05-29T00:55:33.000Z</time></trkpt>
        <trkpt lat="28.885961" lon="105.460592"><ele>255.83496</ele><time>2026-05-29T00:55:38.000Z</time></trkpt>
        <trkpt lat="28.885974" lon="105.460531"><ele>254.12167</ele><time>2026-05-29T00:55:55.000Z</time></trkpt>
        <trkpt lat="28.885976" lon="105.460472"><ele>254.04564</ele><time>2026-05-29T00:55:59.000Z</time></trkpt>
        <trkpt lat="28.885949" lon="105.460429"><ele>253.9138</ele><time>2026-05-29T00:56:01.000Z</time></trkpt>
        <trkpt lat="28.885936" lon="105.460378"><ele>250.95526</ele><time>2026-05-29T00:56:04.000Z</time></trkpt>
        <trkpt lat="28.88597" lon="105.460326"><ele>248.77037</ele><time>2026-05-29T00:56:09.000Z</time></trkpt>
        <trkpt lat="28.886001" lon="105.460274"><ele>246.39114</ele><time>2026-05-29T00:56:15.000Z</time></trkpt>
        <trkpt lat="28.88604" lon="105.460242"><ele>247.87251</ele><time>2026-05-29T00:56:20.000Z</time></trkpt>
        <trkpt lat="28.88601" lon="105.460285"><ele>246.67625</ele><time>2026-05-29T00:59:44.000Z</time></trkpt>
        <trkpt lat="28.885993" lon="105.460335"><ele>248.53152</ele><time>2026-05-29T00:59:51.000Z</time></trkpt>
        <trkpt lat="28.885992" lon="105.460393"><ele>248.76543</ele><time>2026-05-29T00:59:56.000Z</time></trkpt>
        <trkpt lat="28.88599" lon="105.460446"><ele>250.7789</ele><time>2026-05-29T01:00:01.000Z</time></trkpt>
        <trkpt lat="28.885996" lon="105.460513"><ele>251.5218</ele><time>2026-05-29T01:00:06.000Z</time></trkpt>
        <trkpt lat="28.885997" lon="105.460567"><ele>253.18068</ele><time>2026-05-29T01:00:11.000Z</time></trkpt>
        <trkpt lat="28.886014" lon="105.46062"><ele>256.05756</ele><time>2026-05-29T01:00:17.000Z</time></trkpt>
        <trkpt lat="28.886022" lon="105.460671"><ele>257.17514</ele><time>2026-05-29T01:00:29.000Z</time></trkpt>
        <trkpt lat="28.886045" lon="105.460717"><ele>259.47668</ele><time>2026-05-29T01:00:43.000Z</time></trkpt>
        <trkpt lat="28.886017" lon="105.460768"><ele>258.82053</ele><time>2026-05-29T01:00:49.000Z</time></trkpt>
        <trkpt lat="28.885959" lon="105.460781"><ele>258.68597</ele><time>2026-05-29T01:00:55.000Z</time></trkpt>
        <trkpt lat="28.88591" lon="105.460813"><ele>259.55368</ele><time>2026-05-29T01:01:02.000Z</time></trkpt>
        <trkpt lat="28.885869" lon="105.460839"><ele>259.0107</ele><time>2026-05-29T01:01:26.000Z</time></trkpt>
        <trkpt lat="28.88582" lon="105.460842"><ele>259.50403</ele><time>2026-05-29T01:01:32.000Z</time></trkpt>
        <trkpt lat="28.885777" lon="105.460823"><ele>262.0484</ele><time>2026-05-29T01:01:37.000Z</time></trkpt>
        <trkpt lat="28.885738" lon="105.460857"><ele>263.06973</ele><time>2026-05-29T01:01:46.000Z</time></trkpt>
        <trkpt lat="28.885713" lon="105.460903"><ele>263.70755</ele><time>2026-05-29T01:01:53.000Z</time></trkpt>
        <trkpt lat="28.885691" lon="105.460949"><ele>264.37802</ele><time>2026-05-29T01:01:59.000Z</time></trkpt>
        <trkpt lat="28.885688" lon="105.461008"><ele>267.04904</ele><time>2026-05-29T01:02:04.000Z</time></trkpt>
        <trkpt lat="28.885692" lon="105.461061"><ele>268.2977</ele><time>2026-05-29T01:02:20.000Z</time></trkpt>
        <trkpt lat="28.885682" lon="105.461112"><ele>270.07675</ele><time>2026-05-29T01:02:27.000Z</time></trkpt>
        <trkpt lat="28.885671" lon="105.461167"><ele>269.74396</ele><time>2026-05-29T01:02:34.000Z</time></trkpt>
        <trkpt lat="28.88568" lon="105.461114"><ele>270.13614</ele><time>2026-05-29T01:05:25.000Z</time></trkpt>
        <trkpt lat="28.885667" lon="105.461166"><ele>271.25003</ele><time>2026-05-29T01:06:41.000Z</time></trkpt>
        <trkpt lat="28.885642" lon="105.461122"><ele>271.4</ele><time>2026-05-29T01:09:21.000Z</time></trkpt>
        <trkpt lat="28.885614" lon="105.461166"><ele>274.30307</ele><time>2026-05-29T01:11:16.000Z</time></trkpt>
        <trkpt lat="28.885571" lon="105.461201"><ele>275.9948</ele><time>2026-05-29T01:11:38.000Z</time></trkpt>
        <trkpt lat="28.885522" lon="105.461194"><ele>278.09708</ele><time>2026-05-29T01:11:50.000Z</time></trkpt>
        <trkpt lat="28.885499" lon="105.461143"><ele>280.43204</ele><time>2026-05-29T01:11:59.000Z</time></trkpt>
        <trkpt lat="28.885468" lon="105.461102"><ele>282.4367</ele><time>2026-05-29T01:12:09.000Z</time></trkpt>
        <trkpt lat="28.885427" lon="105.461056"><ele>284.0903</ele><time>2026-05-29T01:12:47.000Z</time></trkpt>
        <trkpt lat="28.885393" lon="105.461011"><ele>284.89526</ele><time>2026-05-29T01:12:59.000Z</time></trkpt>
        <trkpt lat="28.885347" lon="105.46102"><ele>286.30103</ele><time>2026-05-29T01:13:18.000Z</time></trkpt>
        <trkpt lat="28.885342" lon="105.461071"><ele>287.60913</ele><time>2026-05-29T01:13:26.000Z</time></trkpt>
        <trkpt lat="28.885333" lon="105.460988"><ele>287.3037</ele><time>2026-05-29T01:13:29.000Z</time></trkpt>
        <trkpt lat="28.885336" lon="105.460929"><ele>289.20697</ele><time>2026-05-29T01:13:33.000Z</time></trkpt>
        <trkpt lat="28.885299" lon="105.460887"><ele>289.75656</ele><time>2026-05-29T01:13:37.000Z</time></trkpt>
        <trkpt lat="28.885293" lon="105.460828"><ele>289.43646</ele><time>2026-05-29T01:13:44.000Z</time></trkpt>
        <trkpt lat="28.885327" lon="105.460787"><ele>290.0755</ele><time>2026-05-29T01:13:48.000Z</time></trkpt>
        <trkpt lat="28.885269" lon="105.460786"><ele>287.98654</ele><time>2026-05-29T01:13:53.000Z</time></trkpt>
        <trkpt lat="28.885264" lon="105.460854"><ele>286.75708</ele><time>2026-05-29T01:13:56.000Z</time></trkpt>
        <trkpt lat="28.885227" lon="105.460776"><ele>288.4829</ele><time>2026-05-29T01:14:01.000Z</time></trkpt>
        <trkpt lat="28.885177" lon="105.460772"><ele>290.32938</ele><time>2026-05-29T01:14:05.000Z</time></trkpt>
        <trkpt lat="28.885132" lon="105.460776"><ele>289.41098</ele><time>2026-05-29T01:14:13.000Z</time></trkpt>
        <trkpt lat="28.885098" lon="105.460813"><ele>292.02124</ele><time>2026-05-29T01:14:19.000Z</time></trkpt>
        <trkpt lat="28.885053" lon="105.460803"><ele>292.9241</ele><time>2026-05-29T01:14:26.000Z</time></trkpt>
        <trkpt lat="28.885006" lon="105.460821"><ele>296.02914</ele><time>2026-05-29T01:14:33.000Z</time></trkpt>
        <trkpt lat="28.88496" lon="105.460798"><ele>298.04977</ele><time>2026-05-29T01:14:38.000Z</time></trkpt>
        <trkpt lat="28.884964" lon="105.460852"><ele>298.6551</ele><time>2026-05-29T01:14:51.000Z</time></trkpt>
        <trkpt lat="28.884932" lon="105.460801"><ele>297.74463</ele><time>2026-05-29T01:15:03.000Z</time></trkpt>
        <trkpt lat="28.884979" lon="105.460811"><ele>297.7871</ele><time>2026-05-29T01:15:05.000Z</time></trkpt>
        <trkpt lat="28.884938" lon="105.460839"><ele>298.3779</ele><time>2026-05-29T01:15:10.000Z</time></trkpt>
        <trkpt lat="28.884964" lon="105.460894"><ele>298.59033</ele><time>2026-05-29T01:15:12.000Z</time></trkpt>
        <trkpt lat="28.884942" lon="105.46095"><ele>298.20187</ele><time>2026-05-29T01:15:19.000Z</time></trkpt>
        <trkpt lat="28.884926" lon="105.461001"><ele>299.4793</ele><time>2026-05-29T01:15:22.000Z</time></trkpt>
        <trkpt lat="28.884892" lon="105.461046"><ele>304.571</ele><time>2026-05-29T01:15:32.000Z</time></trkpt>
        <trkpt lat="28.884879" lon="105.461129"><ele>308.5358</ele><time>2026-05-29T01:16:21.000Z</time></trkpt>
        <trkpt lat="28.884909" lon="105.461079"><ele>307.78732</ele><time>2026-05-29T01:16:38.000Z</time></trkpt>
        <trkpt lat="28.884877" lon="105.461117"><ele>306.15518</ele><time>2026-05-29T01:17:00.000Z</time></trkpt>
        <trkpt lat="28.884872" lon="105.461183"><ele>306.03403</ele><time>2026-05-29T01:17:05.000Z</time></trkpt>
        <trkpt lat="28.88487" lon="105.461237"><ele>306.12772</ele><time>2026-05-29T01:17:09.000Z</time></trkpt>
        <trkpt lat="28.884854" lon="105.461297"><ele>306.69696</ele><time>2026-05-29T01:17:13.000Z</time></trkpt>
        <trkpt lat="28.884835" lon="105.461352"><ele>307.18942</ele><time>2026-05-29T01:17:17.000Z</time></trkpt>
        <trkpt lat="28.884809" lon="105.461404"><ele>307.0777</ele><time>2026-05-29T01:17:20.000Z</time></trkpt>
        <trkpt lat="28.884784" lon="105.461462"><ele>307.58347</ele><time>2026-05-29T01:17:25.000Z</time></trkpt>
        <trkpt lat="28.884755" lon="105.461517"><ele>306.87097</ele><time>2026-05-29T01:17:29.000Z</time></trkpt>
        <trkpt lat="28.884722" lon="105.461571"><ele>306.65662</ele><time>2026-05-29T01:17:33.000Z</time></trkpt>
        <trkpt lat="28.884688" lon="105.461621"><ele>306.89</ele><time>2026-05-29T01:17:37.000Z</time></trkpt>
        <trkpt lat="28.884661" lon="105.461673"><ele>306.66644</ele><time>2026-05-29T01:17:41.000Z</time></trkpt>
        <trkpt lat="28.884607" lon="105.461686"><ele>306.3332</ele><time>2026-05-29T01:17:46.000Z</time></trkpt>
        <trkpt lat="28.884557" lon="105.461644"><ele>306.09082</ele><time>2026-05-29T01:17:50.000Z</time></trkpt>
        <trkpt lat="28.884506" lon="105.461607"><ele>305.98148</ele><time>2026-05-29T01:17:54.000Z</time></trkpt>
        <trkpt lat="28.884458" lon="105.461569"><ele>306.45502</ele><time>2026-05-29T01:17:58.000Z</time></trkpt>
        <trkpt lat="28.884415" lon="105.461537"><ele>307.20578</ele><time>2026-05-29T01:18:02.000Z</time></trkpt>
        <trkpt lat="28.884371" lon="105.461513"><ele>308.42932</ele><time>2026-05-29T01:18:06.000Z</time></trkpt>
        <trkpt lat="28.884331" lon="105.461483"><ele>308.69904</ele><time>2026-05-29T01:18:09.000Z</time></trkpt>
        <trkpt lat="28.884291" lon="105.461451"><ele>309.77762</ele><time>2026-05-29T01:18:12.000Z</time></trkpt>
        <trkpt lat="28.884244" lon="105.461418"><ele>310.72208</ele><time>2026-05-29T01:18:16.000Z</time></trkpt>
        <trkpt lat="28.8842" lon="105.461425"><ele>310.79944</ele><time>2026-05-29T01:18:21.000Z</time></trkpt>
        <trkpt lat="28.884184" lon="105.461364"><ele>310.89526</ele><time>2026-05-29T01:19:02.000Z</time></trkpt>
        <trkpt lat="28.884141" lon="105.461333"><ele>310.93707</ele><time>2026-05-29T01:19:07.000Z</time></trkpt>
        <trkpt lat="28.884091" lon="105.461309"><ele>311.3068</ele><time>2026-05-29T01:19:12.000Z</time></trkpt>
        <trkpt lat="28.884034" lon="105.461319"><ele>310.46164</ele><time>2026-05-29T01:19:16.000Z</time></trkpt>
        <trkpt lat="28.883999" lon="105.461354"><ele>310.33383</ele><time>2026-05-29T01:19:19.000Z</time></trkpt>
        <trkpt lat="28.883978" lon="105.4614"><ele>309.58405</ele><time>2026-05-29T01:19:23.000Z</time></trkpt>
        <trkpt lat="28.88395" lon="105.461447"><ele>309.28696</ele><time>2026-05-29T01:19:27.000Z</time></trkpt>
        <trkpt lat="28.88392" lon="105.461496"><ele>309.4979</ele><time>2026-05-29T01:19:31.000Z</time></trkpt>
        <trkpt lat="28.883883" lon="105.461529"><ele>310.57385</ele><time>2026-05-29T01:19:34.000Z</time></trkpt>
        <trkpt lat="28.883835" lon="105.461557"><ele>311.4259</ele><time>2026-05-29T01:19:38.000Z</time></trkpt>
        <trkpt lat="28.88379" lon="105.461591"><ele>311.53555</ele><time>2026-05-29T01:19:42.000Z</time></trkpt>
        <trkpt lat="28.883757" lon="105.461629"><ele>311.97256</ele><time>2026-05-29T01:19:45.000Z</time></trkpt>
        <trkpt lat="28.883734" lon="105.461675"><ele>311.88828</ele><time>2026-05-29T01:19:49.000Z</time></trkpt>
        <trkpt lat="28.883708" lon="105.46172"><ele>310.6845</ele><time>2026-05-29T01:19:52.000Z</time></trkpt>
        <trkpt lat="28.88369" lon="105.461784"><ele>310.44382</ele><time>2026-05-29T01:19:56.000Z</time></trkpt>
        <trkpt lat="28.883685" lon="105.461839"><ele>310.0294</ele><time>2026-05-29T01:20:00.000Z</time></trkpt>
        <trkpt lat="28.883691" lon="105.46189"><ele>310.40338</ele><time>2026-05-29T01:20:03.000Z</time></trkpt>
        <trkpt lat="28.883701" lon="105.46194"><ele>309.65823</ele><time>2026-05-29T01:20:06.000Z</time></trkpt>
        <trkpt lat="28.883729" lon="105.461993"><ele>309.8003</ele><time>2026-05-29T01:20:10.000Z</time></trkpt>
        <trkpt lat="28.883758" lon="105.462044"><ele>309.02844</ele><time>2026-05-29T01:20:14.000Z</time></trkpt>
        <trkpt lat="28.883786" lon="105.462095"><ele>308.12653</ele><time>2026-05-29T01:20:18.000Z</time></trkpt>
        <trkpt lat="28.883815" lon="105.462136"><ele>307.26123</ele><time>2026-05-29T01:20:21.000Z</time></trkpt>
        <trkpt lat="28.883834" lon="105.462192"><ele>305.35184</ele><time>2026-05-29T01:20:25.000Z</time></trkpt>
        <trkpt lat="28.883844" lon="105.462258"><ele>305.19263</ele><time>2026-05-29T01:20:29.000Z</time></trkpt>
        <trkpt lat="28.883839" lon="105.462315"><ele>303.88004</ele><time>2026-05-29T01:20:33.000Z</time></trkpt>
        <trkpt lat="28.883844" lon="105.462375"><ele>302.92856</ele><time>2026-05-29T01:20:37.000Z</time></trkpt>
        <trkpt lat="28.883843" lon="105.46243"><ele>302.47076</ele><time>2026-05-29T01:20:40.000Z</time></trkpt>
        <trkpt lat="28.883841" lon="105.462499"><ele>301.95694</ele><time>2026-05-29T01:20:44.000Z</time></trkpt>
        <trkpt lat="28.883849" lon="105.462558"><ele>302.7268</ele><time>2026-05-29T01:20:48.000Z</time></trkpt>
        <trkpt lat="28.883853" lon="105.462615"><ele>301.97302</ele><time>2026-05-29T01:20:52.000Z</time></trkpt>
        <trkpt lat="28.883861" lon="105.462666"><ele>301.54407</ele><time>2026-05-29T01:20:56.000Z</time></trkpt>
        <trkpt lat="28.88387" lon="105.462731"><ele>302.00943</ele><time>2026-05-29T01:21:00.000Z</time></trkpt>
        <trkpt lat="28.883877" lon="105.462784"><ele>302.66934</ele><time>2026-05-29T01:21:03.000Z</time></trkpt>
        <trkpt lat="28.883885" lon="105.462836"><ele>302.47083</ele><time>2026-05-29T01:21:06.000Z</time></trkpt>
        <trkpt lat="28.883894" lon="105.4629"><ele>303.0733</ele><time>2026-05-29T01:21:10.000Z</time></trkpt>
        <trkpt lat="28.883894" lon="105.46296"><ele>303.8808</ele><time>2026-05-29T01:21:14.000Z</time></trkpt>
        <trkpt lat="28.883899" lon="105.463024"><ele>304.59482</ele><time>2026-05-29T01:21:18.000Z</time></trkpt>
        <trkpt lat="28.883899" lon="105.463085"><ele>304.87335</ele><time>2026-05-29T01:21:22.000Z</time></trkpt>
        <trkpt lat="28.883904" lon="105.463146"><ele>305.50998</ele><time>2026-05-29T01:21:26.000Z</time></trkpt>
        <trkpt lat="28.883909" lon="105.463212"><ele>305.6295</ele><time>2026-05-29T01:21:30.000Z</time></trkpt>
        <trkpt lat="28.883904" lon="105.463265"><ele>305.07364</ele><time>2026-05-29T01:21:34.000Z</time></trkpt>
        <trkpt lat="28.883859" lon="105.463306"><ele>305.50534</ele><time>2026-05-29T01:21:38.000Z</time></trkpt>
        <trkpt lat="28.883818" lon="105.463356"><ele>306.41986</ele><time>2026-05-29T01:21:42.000Z</time></trkpt>
        <trkpt lat="28.883792" lon="105.463401"><ele>306.3543</ele><time>2026-05-29T01:21:46.000Z</time></trkpt>
        <trkpt lat="28.88376" lon="105.463454"><ele>306.68246</ele><time>2026-05-29T01:21:50.000Z</time></trkpt>
        <trkpt lat="28.88373" lon="105.463496"><ele>306.726</ele><time>2026-05-29T01:21:53.000Z</time></trkpt>
        <trkpt lat="28.883705" lon="105.463549"><ele>306.59128</ele><time>2026-05-29T01:21:57.000Z</time></trkpt>
        <trkpt lat="28.883683" lon="105.463608"><ele>307.1041</ele><time>2026-05-29T01:22:01.000Z</time></trkpt>
        <trkpt lat="28.883668" lon="105.463669"><ele>306.62485</ele><time>2026-05-29T01:22:05.000Z</time></trkpt>
        <trkpt lat="28.883662" lon="105.463734"><ele>306.4835</ele><time>2026-05-29T01:22:09.000Z</time></trkpt>
        <trkpt lat="28.883704" lon="105.463774"><ele>305.19373</ele><time>2026-05-29T01:22:20.000Z</time></trkpt>
        <trkpt lat="28.88375" lon="105.463776"><ele>305.1001</ele><time>2026-05-29T01:22:23.000Z</time></trkpt>
        <trkpt lat="28.8838" lon="105.46378"><ele>304.4126</ele><time>2026-05-29T01:22:27.000Z</time></trkpt>
        <trkpt lat="28.883854" lon="105.463783"><ele>303.5799</ele><time>2026-05-29T01:22:31.000Z</time></trkpt>
        <trkpt lat="28.883904" lon="105.463793"><ele>303.0964</ele><time>2026-05-29T01:22:35.000Z</time></trkpt>
        <trkpt lat="28.883953" lon="105.463808"><ele>303.13</ele><time>2026-05-29T01:22:39.000Z</time></trkpt>
        <trkpt lat="28.884001" lon="105.463829"><ele>303.09174</ele><time>2026-05-29T01:22:43.000Z</time></trkpt>
        <trkpt lat="28.884047" lon="105.463817"><ele>302.98276</ele><time>2026-05-29T01:22:46.000Z</time></trkpt>
        <trkpt lat="28.88409" lon="105.463801"><ele>303.0975</ele><time>2026-05-29T01:22:49.000Z</time></trkpt>
        <trkpt lat="28.884139" lon="105.463769"><ele>303.96844</ele><time>2026-05-29T01:22:52.000Z</time></trkpt>
        <trkpt lat="28.884188" lon="105.463766"><ele>304.26328</ele><time>2026-05-29T01:22:55.000Z</time></trkpt>
        <trkpt lat="28.884246" lon="105.463757"><ele>304.60046</ele><time>2026-05-29T01:22:59.000Z</time></trkpt>
        <trkpt lat="28.884301" lon="105.463759"><ele>303.81827</ele><time>2026-05-29T01:23:03.000Z</time></trkpt>
        <trkpt lat="28.884356" lon="105.463761"><ele>303.1591</ele><time>2026-05-29T01:23:07.000Z</time></trkpt>
        <trkpt lat="28.884408" lon="105.463762"><ele>303.105</ele><time>2026-05-29T01:23:11.000Z</time></trkpt>
        <trkpt lat="28.88446" lon="105.463751"><ele>302.68518</ele><time>2026-05-29T01:23:15.000Z</time></trkpt>
        <trkpt lat="28.884512" lon="105.46377"><ele>302.5462</ele><time>2026-05-29T01:23:19.000Z</time></trkpt>
        <trkpt lat="28.884576" lon="105.463756"><ele>302.2398</ele><time>2026-05-29T01:23:24.000Z</time></trkpt>
        <trkpt lat="28.884629" lon="105.463765"><ele>300.6666</ele><time>2026-05-29T01:23:28.000Z</time></trkpt>
        <trkpt lat="28.884675" lon="105.463753"><ele>298.89044</ele><time>2026-05-29T01:23:32.000Z</time></trkpt>
        <trkpt lat="28.884728" lon="105.463759"><ele>299.50726</ele><time>2026-05-29T01:23:35.000Z</time></trkpt>
        <trkpt lat="28.884786" lon="105.463749"><ele>299.55963</ele><time>2026-05-29T01:23:39.000Z</time></trkpt>
        <trkpt lat="28.88484" lon="105.463742"><ele>300.162</ele><time>2026-05-29T01:23:42.000Z</time></trkpt>
        <trkpt lat="28.884887" lon="105.463737"><ele>299.4535</ele><time>2026-05-29T01:23:45.000Z</time></trkpt>
        <trkpt lat="28.884937" lon="105.463748"><ele>299.9763</ele><time>2026-05-29T01:23:48.000Z</time></trkpt>
        <trkpt lat="28.884995" lon="105.463749"><ele>300.43155</ele><time>2026-05-29T01:23:52.000Z</time></trkpt>
        <trkpt lat="28.885049" lon="105.463748"><ele>300.36536</ele><time>2026-05-29T01:23:56.000Z</time></trkpt>
        <trkpt lat="28.885099" lon="105.463757"><ele>298.52426</ele><time>2026-05-29T01:24:00.000Z</time></trkpt>
        <trkpt lat="28.885147" lon="105.463762"><ele>298.49963</ele><time>2026-05-29T01:24:04.000Z</time></trkpt>
        <trkpt lat="28.885195" lon="105.463736"><ele>298.37994</ele><time>2026-05-29T01:24:08.000Z</time></trkpt>
        <trkpt lat="28.88524" lon="105.463718"><ele>297.50723</ele><time>2026-05-29T01:24:12.000Z</time></trkpt>
      </trkseg>
  </trk>
</gpx>